createdAt,value
2018-07-05T00:01:27.423Z,45.90
2018-07-05T00:04:07.088Z,46.10
2018-07-05T00:06:46.640Z,46.20
2018-07-05T00:09:26.280Z,46.30
2018-07-05T00:14:39.628Z,46.90
2018-07-05T00:17:19.196Z,46.60
2018-07-05T00:19:58.885Z,46.70
2018-07-05T00:22:38.357Z,46.80
2018-07-05T00:25:17.908Z,46.70
2018-07-05T00:27:57.684Z,46.80
2018-07-05T00:30:37.266Z,46.90
2018-07-05T00:33:16.819Z,46.90
2018-07-05T00:35:56.614Z,47.00
2018-07-05T00:38:36.133Z,47.10
2018-07-05T00:41:15.612Z,47.20
2018-07-05T00:43:55.283Z,47.50
2018-07-05T00:46:34.932Z,47.50
2018-07-05T00:49:14.633Z,47.40
2018-07-05T00:51:54.090Z,47.80
2018-07-05T00:54:33.546Z,48.10
2018-07-05T00:57:13.040Z,48.10
2018-07-05T00:59:52.694Z,48.20
2018-07-05T01:02:32.341Z,48.30
2018-07-05T01:05:11.776Z,48.40
2018-07-05T01:07:51.340Z,48.50
2018-07-05T01:10:30.861Z,48.70
2018-07-05T01:13:10.538Z,48.70
2018-07-05T01:15:50.096Z,48.70
2018-07-05T01:18:29.658Z,48.70
2018-07-05T01:21:09.192Z,48.70
2018-07-05T01:23:48.956Z,48.80
2018-07-05T01:26:28.524Z,48.80
2018-07-05T01:29:08.195Z,48.90
2018-07-05T01:31:47.853Z,49.00
2018-07-05T01:34:27.361Z,49.30
2018-07-05T01:37:07.056Z,49.50
2018-07-05T01:39:46.683Z,49.30
2018-07-05T01:42:26.201Z,49.70
2018-07-05T01:45:05.816Z,49.70
2018-07-05T01:47:45.344Z,50.00
2018-07-05T01:50:25.034Z,50.10
2018-07-05T01:53:04.777Z,50.30
2018-07-05T01:55:44.445Z,50.40
2018-07-05T01:58:24.005Z,50.40
2018-07-05T02:01:03.736Z,50.40
2018-07-05T02:03:43.470Z,50.50
2018-07-05T02:06:23.153Z,50.50
2018-07-05T02:09:02.873Z,50.80
2018-07-05T02:11:42.641Z,50.90
2018-07-05T02:14:22.185Z,51.10
2018-07-05T02:17:01.834Z,51.30
2018-07-05T02:19:41.334Z,51.40
2018-07-05T02:22:20.938Z,51.70
2018-07-05T02:25:00.715Z,51.80
2018-07-05T02:27:40.265Z,52.00
2018-07-05T02:30:20.057Z,52.10
2018-07-05T02:32:59.684Z,52.20
2018-07-05T02:35:39.268Z,52.50
2018-07-05T02:38:24.109Z,52.60
2018-07-05T02:41:04.599Z,52.50
2018-07-05T02:43:44.380Z,52.50
2018-07-05T02:46:24.028Z,52.50
2018-07-05T02:49:03.692Z,52.60
2018-07-05T02:51:43.245Z,52.80
2018-07-05T02:54:22.716Z,52.60
2018-07-05T02:57:02.269Z,52.60
2018-07-05T02:59:41.852Z,52.40
2018-07-05T04:24:30.740Z,52.40
2018-07-05T04:27:10.320Z,55.60
2018-07-05T04:29:50.109Z,55.90
2018-07-05T04:32:29.727Z,56.10
2018-07-05T04:35:09.348Z,55.70
2018-07-05T04:37:49.077Z,56.40
2018-07-05T04:40:28.712Z,55.10
2018-07-05T04:43:08.423Z,55.50
2018-07-05T04:45:47.989Z,54.80
2018-07-05T04:48:27.684Z,55.10
2018-07-05T04:51:07.348Z,54.60
2018-07-05T04:53:46.799Z,55.30
2018-07-05T04:56:26.585Z,56.60
2018-07-05T04:59:06.220Z,55.90
2018-07-05T05:01:45.904Z,54.90
2018-07-05T05:04:25.592Z,55.10
2018-07-05T05:07:05.405Z,55.50
2018-07-05T05:09:44.913Z,55.40
2018-07-05T05:12:24.577Z,57.80
2018-07-05T05:15:04.393Z,56.50
2018-07-05T05:17:44.025Z,57.20
2018-07-05T05:20:23.736Z,56.30
2018-07-05T05:23:03.311Z,54.60
2018-07-05T05:25:43.093Z,55.50
2018-07-05T05:30:56.367Z,55.90
2018-07-05T05:33:36.010Z,56.30
2018-07-05T05:36:15.662Z,54.60
2018-07-05T05:38:55.293Z,54.50
2018-07-05T05:41:34.925Z,56.00
2018-07-05T05:44:14.603Z,55.10
2018-07-05T05:46:54.132Z,54.80
2018-07-05T05:49:33.824Z,56.00
2018-07-05T05:52:13.439Z,54.60
2018-07-05T05:54:53.080Z,54.00
2018-07-05T05:57:32.795Z,52.90
2018-07-05T06:02:46.394Z,54.90
2018-07-05T06:05:26.037Z,54.80
2018-07-05T06:08:05.720Z,55.20
2018-07-05T06:10:45.220Z,53.40
2018-07-05T06:13:24.880Z,54.60
2018-07-05T06:16:04.436Z,54.00
2018-07-05T06:18:45.133Z,54.90
2018-07-05T06:21:24.632Z,54.80
2018-07-05T06:24:04.279Z,53.30
2018-07-05T06:29:17.630Z,52.40
2018-07-05T06:31:57.213Z,53.80
2018-07-05T06:34:36.773Z,54.20
2018-07-05T06:37:16.433Z,53.10
2018-07-05T06:39:56.194Z,52.80
2018-07-05T06:42:35.895Z,53.60
2018-07-05T06:45:15.589Z,53.60
2018-07-05T06:47:55.222Z,53.30
2018-07-05T06:50:34.801Z,52.70
2018-07-05T06:53:14.458Z,52.80
2018-07-05T06:55:54.172Z,52.60
2018-07-05T07:01:07.364Z,52.30
2018-07-05T07:06:20.636Z,52.10
2018-07-05T07:09:00.096Z,51.00
2018-07-05T07:11:39.799Z,51.20
2018-07-05T07:14:19.421Z,50.70
2018-07-05T07:16:59.121Z,51.40
2018-07-05T07:19:38.803Z,50.80
2018-07-05T07:22:18.344Z,49.90
2018-07-05T07:24:58.018Z,51.30
2018-07-05T07:27:37.679Z,51.60
2018-07-05T07:30:17.444Z,50.80
2018-07-05T07:32:56.999Z,50.00
2018-07-05T07:35:36.568Z,51.30
2018-07-05T07:38:16.101Z,51.10
2018-07-05T07:40:55.721Z,50.70
2018-07-05T07:43:22.916Z,50.20
2018-07-05T07:45:50.104Z,50.00
2018-07-05T07:48:17.272Z,49.80
2018-07-05T07:50:44.432Z,48.50
2018-07-05T07:53:11.612Z,48.90
2018-07-05T07:55:38.996Z,49.30
2018-07-05T07:58:06.192Z,49.10
2018-07-05T08:00:33.750Z,48.80
2018-07-05T08:03:00.927Z,48.10
2018-07-05T08:05:28.109Z,48.40
2018-07-05T08:07:55.305Z,47.70
2018-07-05T08:10:22.460Z,47.60
2018-07-05T08:12:49.620Z,47.20
2018-07-05T08:15:16.784Z,46.90
2018-07-05T08:17:43.973Z,47.10
2018-07-05T08:20:11.145Z,47.20
2018-07-05T08:22:38.324Z,46.80
2018-07-05T08:25:05.493Z,46.90
2018-07-05T08:27:32.664Z,46.40
2018-07-05T08:29:59.831Z,46.00
2018-07-05T08:32:26.992Z,46.00
2018-07-05T08:34:54.152Z,45.70
2018-07-05T08:37:21.335Z,45.70
2018-07-05T08:39:48.522Z,45.70
2018-07-05T08:42:15.693Z,45.80
2018-07-05T08:44:42.915Z,45.90
2018-07-05T08:47:10.060Z,45.00
2018-07-05T08:49:37.357Z,45.00
2018-07-05T08:52:04.564Z,45.00
2018-07-05T08:54:31.739Z,44.90
2018-07-05T08:56:58.892Z,44.70
2018-07-05T08:59:26.051Z,44.70
2018-07-05T09:01:53.243Z,44.90
2018-07-05T09:04:20.413Z,44.10
2018-07-05T09:09:21.068Z,43.80
2018-07-05T09:11:48.268Z,43.80
2018-07-05T09:14:15.412Z,43.70
2018-07-05T09:16:42.602Z,43.80
2018-07-05T09:19:09.769Z,43.50
2018-07-05T09:21:36.941Z,43.50
2018-07-05T09:24:04.100Z,43.00
2018-07-05T09:28:58.711Z,42.20
2018-07-05T09:31:25.872Z,42.10
2018-07-05T09:33:53.036Z,41.80
2018-07-05T09:36:20.208Z,41.90
2018-07-05T09:38:47.488Z,41.80
2018-07-05T09:41:14.661Z,41.70
2018-07-05T09:43:41.832Z,41.40
2018-07-05T09:46:09.194Z,41.70
2018-07-05T09:48:36.384Z,40.90
2018-07-05T09:51:03.564Z,41.20
2018-07-05T09:53:30.788Z,40.90
2018-07-05T09:55:57.993Z,40.60
2018-07-05T09:58:25.152Z,40.00
2018-07-05T10:00:52.956Z,40.20
2018-07-05T10:05:49.197Z,39.90
2018-07-05T10:08:17.504Z,39.80
2018-07-05T10:10:44.706Z,39.60
2018-07-05T10:13:12.317Z,39.40
2018-07-05T10:15:39.473Z,39.00
2018-07-05T10:18:06.713Z,39.10
2018-07-05T10:20:34.185Z,38.70
2018-07-05T10:23:01.346Z,39.10
2018-07-05T10:25:28.518Z,38.70
2018-07-05T10:27:55.676Z,38.60
2018-07-05T10:30:35.036Z,38.00
2018-07-05T10:35:35.776Z,38.80
2018-07-05T10:38:03.904Z,38.10
2018-07-05T10:40:44.224Z,37.90
2018-07-05T10:45:57.588Z,37.90
2018-07-05T10:48:37.360Z,37.00
2018-07-05T10:51:17.132Z,35.60
2018-07-05T10:56:30.421Z,35.80
2018-07-05T10:59:09.880Z,35.90
2018-07-05T11:01:49.436Z,36.00
2018-07-05T11:04:29.144Z,35.60
2018-07-05T11:07:08.660Z,35.10
2018-07-05T11:09:48.596Z,35.10
2018-07-05T11:12:28.252Z,35.30
2018-07-05T11:15:07.949Z,35.90
2018-07-05T11:17:47.588Z,35.60
2018-07-05T11:20:27.336Z,35.40
2018-07-05T11:23:07.000Z,34.90
2018-07-05T11:25:46.661Z,34.60
2018-07-05T11:28:26.156Z,34.40
2018-07-05T11:31:05.822Z,34.80
2018-07-05T11:33:45.463Z,34.60
2018-07-05T11:36:25.059Z,34.50
2018-07-05T11:39:05.661Z,35.00
2018-07-05T11:41:45.557Z,34.60
2018-07-05T11:44:25.261Z,34.30
2018-07-05T11:49:38.523Z,35.10
2018-07-05T11:52:18.251Z,34.80
2018-07-05T11:54:57.744Z,35.30
2018-07-05T11:57:37.425Z,35.70
2018-07-05T12:00:17.051Z,35.80
2018-07-05T12:02:56.635Z,35.70
2018-07-05T12:05:36.329Z,35.80
2018-07-05T12:08:15.788Z,36.00
2018-07-05T12:10:55.224Z,36.10
2018-07-05T12:13:34.925Z,35.90
2018-07-05T12:16:14.589Z,36.10
2018-07-05T12:18:54.164Z,36.00
2018-07-05T12:21:33.655Z,35.80
2018-07-05T12:24:13.186Z,35.90
2018-07-05T12:26:52.645Z,36.10
2018-07-05T13:18:09.832Z,37.90
2018-07-05T13:23:22.893Z,37.80
2018-07-05T13:26:02.399Z,37.70
2018-07-05T13:28:41.848Z,37.60
2018-07-05T13:31:21.639Z,37.40
2018-07-05T13:34:01.353Z,38.00
2018-07-05T13:36:41.079Z,38.30
2018-07-05T13:39:20.692Z,37.30
2018-07-05T13:42:00.545Z,37.70
2018-07-05T13:47:13.673Z,37.20
2018-07-05T13:49:53.216Z,37.50
2018-07-05T13:52:32.857Z,37.50
2018-07-05T13:55:12.349Z,38.20
2018-07-05T13:57:51.908Z,38.90
2018-07-05T14:00:31.473Z,38.80
2018-07-05T14:03:11.000Z,37.80
2018-07-05T14:05:50.508Z,38.30
2018-07-05T14:08:30.142Z,38.10
2018-07-05T14:11:09.791Z,38.20
2018-07-05T14:13:49.340Z,38.00
2018-07-05T14:16:29.072Z,37.60
2018-07-05T14:19:08.700Z,37.40
2018-07-05T14:21:48.236Z,37.60
2018-07-05T14:24:27.816Z,38.40
2018-07-05T14:27:07.385Z,38.20
2018-07-05T14:29:47.177Z,38.10
2018-07-05T14:32:26.685Z,38.80
2018-07-05T14:35:06.208Z,38.20
2018-07-05T14:37:45.766Z,38.60
2018-07-05T14:40:25.272Z,37.40
2018-07-05T14:45:38.027Z,37.80
2018-07-05T14:48:17.637Z,38.60
2018-07-05T14:50:57.312Z,39.20
2018-07-05T14:53:36.942Z,38.60
2018-07-05T14:56:16.473Z,39.80
2018-07-05T14:58:55.957Z,39.70
2018-07-05T15:01:35.490Z,39.20
2018-07-05T15:04:15.036Z,39.30
2018-07-05T15:06:54.681Z,40.10
2018-07-05T15:09:34.264Z,40.50
2018-07-05T15:12:13.870Z,40.70
2018-07-05T15:14:53.394Z,40.70
2018-07-05T15:17:33.004Z,39.70
2018-07-05T15:20:12.652Z,39.80
2018-07-05T15:22:52.257Z,40.10
2018-07-05T15:25:31.708Z,40.40
2018-07-05T15:30:44.732Z,40.30
2018-07-05T15:33:24.168Z,40.30
2018-07-05T15:38:37.435Z,40.60
2018-07-05T15:41:17.001Z,40.40
2018-07-05T15:43:56.548Z,41.00
2018-07-05T15:46:36.395Z,41.80
2018-07-05T15:49:16.099Z,41.70
2018-07-05T15:51:55.712Z,41.50
2018-07-05T15:54:35.267Z,41.10
2018-07-05T15:57:14.936Z,42.00
2018-07-05T15:59:54.549Z,41.70
2018-07-05T16:02:34.086Z,42.70
2018-07-05T16:05:13.623Z,42.30
2018-07-05T16:07:53.388Z,42.60
2018-07-05T16:10:33.025Z,42.10
2018-07-05T16:13:12.640Z,43.10
2018-07-05T17:38:01.488Z,42.40
2018-07-05T17:40:41.044Z,44.70
2018-07-05T17:43:20.640Z,44.80
2018-07-05T17:46:00.256Z,44.30
2018-07-05T17:48:39.900Z,44.00
2018-07-05T17:51:19.597Z,43.80
2018-07-05T17:56:32.842Z,43.60
2018-07-05T17:59:12.434Z,43.40
2018-07-05T18:01:51.957Z,43.40
2018-07-05T18:04:31.748Z,43.60
2018-07-05T18:07:11.414Z,43.70
2018-07-05T18:09:51.073Z,44.20
2018-07-05T18:12:30.652Z,44.30
2018-07-05T18:15:10.312Z,44.30
2018-07-05T18:17:49.864Z,44.10
2018-07-05T18:20:29.443Z,44.10
2018-07-05T18:23:09.020Z,44.10
2018-07-05T18:25:49.036Z,44.00
2018-07-05T18:28:28.841Z,44.10
2018-07-05T18:33:41.969Z,44.20
2018-07-05T18:36:21.571Z,44.40
2018-07-05T18:39:01.008Z,44.60
2018-07-05T18:41:40.614Z,44.60
2018-07-05T18:44:20.205Z,44.50
2018-07-05T18:49:33.551Z,44.60
2018-07-05T18:52:13.103Z,44.60
2018-07-05T18:54:52.903Z,44.90
2018-07-05T18:57:32.761Z,44.90
2018-07-05T19:00:12.565Z,44.90
2018-07-05T19:02:52.129Z,45.30
2018-07-05T19:05:31.747Z,45.30
2018-07-05T19:08:11.372Z,45.50
2018-07-05T19:10:51.113Z,45.70
2018-07-05T19:13:31.064Z,45.70
2018-07-05T19:16:10.949Z,46.00
2018-07-05T19:18:50.628Z,46.10
2018-07-05T19:21:30.117Z,46.40
2018-07-05T19:24:09.738Z,46.50
2018-07-05T19:26:49.375Z,46.50
2018-07-05T19:29:29.078Z,46.40
2018-07-05T19:32:08.764Z,46.50
2018-07-05T19:34:48.472Z,46.50
2018-07-05T19:37:27.947Z,46.20
2018-07-05T19:40:08.070Z,46.10
2018-07-05T19:42:47.802Z,46.20
2018-07-05T19:45:27.487Z,46.30
2018-07-05T19:48:06.877Z,46.20
2018-07-05T19:50:46.384Z,46.40
2018-07-05T19:53:26.080Z,46.60
2018-07-05T19:56:05.742Z,46.90
2018-07-05T19:58:45.225Z,46.60
2018-07-05T20:01:24.961Z,46.50
2018-07-05T20:04:04.742Z,46.50
2018-07-05T20:06:44.853Z,46.60
2018-07-05T20:09:24.396Z,46.70
2018-07-05T20:12:07.462Z,46.70
2018-07-05T20:14:47.332Z,46.90
2018-07-05T20:17:26.988Z,47.00
2018-07-05T20:20:06.526Z,47.20
2018-07-05T20:22:46.900Z,47.30
2018-07-05T20:25:26.654Z,47.30
2018-07-05T20:28:06.420Z,47.40
2018-07-05T20:30:46.051Z,47.60
2018-07-05T20:33:25.592Z,47.80
2018-07-05T20:36:05.289Z,48.00
2018-07-05T20:38:44.762Z,48.10
2018-07-05T20:41:24.404Z,48.50
2018-07-05T20:44:04.337Z,48.60
2018-07-05T20:46:44.008Z,48.60
2018-07-05T20:54:31.211Z,48.90
2018-07-05T20:57:10.880Z,48.70
2018-07-05T20:59:50.575Z,48.80
2018-07-05T21:02:30.691Z,48.90
2018-07-05T21:05:10.315Z,49.00
2018-07-05T21:07:50.024Z,48.70
2018-07-05T21:10:29.608Z,48.80
2018-07-05T21:13:09.206Z,48.90
2018-07-05T21:15:48.872Z,48.80
2018-07-05T21:18:28.593Z,48.80
2018-07-05T21:21:08.207Z,48.80
2018-07-05T21:23:47.575Z,48.80
2018-07-05T21:26:27.469Z,48.80
2018-07-05T21:29:07.131Z,48.90
2018-07-05T21:31:46.755Z,48.90
2018-07-05T21:34:26.306Z,48.80
2018-07-05T21:37:05.928Z,48.90
2018-07-05T21:39:45.532Z,48.80
2018-07-05T21:42:25.207Z,48.80
2018-07-05T21:47:38.572Z,48.90
2018-07-05T21:50:18.156Z,49.10
2018-07-05T21:52:57.909Z,49.20
2018-07-05T21:55:37.642Z,49.30
2018-07-05T21:58:17.265Z,49.40
2018-07-05T22:00:56.940Z,49.30
2018-07-05T22:03:36.485Z,49.30
2018-07-05T22:06:16.115Z,49.20
2018-07-05T22:08:55.632Z,49.40
2018-07-05T22:11:35.352Z,49.40
2018-07-05T22:16:54.176Z,49.90
2018-07-05T22:19:39.401Z,49.90
2018-07-05T22:22:24.592Z,49.90
2018-07-05T22:25:18.464Z,50.20
2018-07-05T22:28:03.800Z,49.80
2018-07-05T22:30:49.000Z,50.40
2018-07-05T22:33:28.636Z,50.90
2018-07-05T22:36:08.297Z,51.10
2018-07-05T22:38:47.970Z,51.50
2018-07-05T22:41:28.085Z,51.20
2018-07-05T22:44:07.800Z,51.50
2018-07-05T22:46:47.464Z,51.40
2018-07-05T22:49:27.020Z,51.60
2018-07-05T22:52:06.600Z,51.50
2018-07-05T22:54:46.043Z,51.50
2018-07-05T22:57:25.731Z,51.60
2018-07-05T23:00:05.364Z,51.60
2018-07-05T23:02:45.028Z,51.70
2018-07-05T23:07:58.407Z,51.60
2018-07-05T23:10:37.953Z,51.70
2018-07-05T23:13:17.484Z,51.60
2018-07-05T23:15:57.064Z,51.60
2018-07-05T23:18:36.777Z,51.80
2018-07-05T23:21:16.327Z,51.50
2018-07-05T23:23:56.117Z,52.20
2018-07-05T23:26:35.803Z,51.50
2018-07-05T23:29:15.487Z,51.40
2018-07-05T23:31:55.185Z,51.50
2018-07-05T23:34:34.871Z,51.30
2018-07-05T23:37:14.532Z,51.60
2018-07-05T23:39:54.149Z,51.60
2018-07-05T23:42:33.932Z,51.70
2018-07-05T23:45:13.913Z,51.80
2018-07-05T23:47:53.324Z,51.70
2018-07-05T23:50:32.784Z,51.80
2018-07-05T23:53:12.395Z,51.80
2018-07-05T23:55:51.916Z,52.00
2018-07-05T23:58:31.568Z,51.90
